»·PEaware :: N658BL KCMA-KUAO

N658BL :: KCMA-KUAO

FLIGHT INFORMATION

Flight Status: Arrived
Operator: Privately registered:
United States
More flights under this callsign
Pilot: Mike D. (13097)
Aircraft: SOCATA TBM-850
(TBM8)
More flights by this aircraft type
Origin: KCMA Camarillo
United States
Destination: KUAO Aurora State
United States
More flights between these airports :: More routes between these airports
Route: +ZUWNI V299 GMN V23 CZQ V165 MAVER
File this flight plan on PilotEdge
Remarks:
Altitude:
(Current/Filed)
30,000ft
Speed:
(Current/Filed)
322kts
Departed: 24-Jan-18 10:47 AM
Arrived: 24-Jan-18 01:39 PM
Distance/Time
Traveled:
684nm/2:51
Distance/Time
To Go:
Arrived

Flight Plot

Page will automatically refresh every two minutes.

Flight plan parsing failed; only flown route is shown


Map Options




Map Legend


Flown Route
Filed Route
Departure Airport
Arrival Airport
Navaid (VOR, NDB)
Fix

Horizontal Profiles

Position Reports

Time Latitude Longitude Heading Altitude Ground
Speed
24-Jan-18 09:36 34.210409 -119.077891 180 79ft 0kts
24-Jan-18 09:37 34.210408 -119.077891 180 79ft 0kts
24-Jan-18 09:38 34.210408 -119.077891 180 79ft 0kts
24-Jan-18 09:39 34.210407 -119.077891 180 79ft 0kts
24-Jan-18 09:40 34.210406 -119.077891 180 79ft 0kts
24-Jan-18 09:41 34.210405 -119.077891 180 79ft 0kts
24-Jan-18 09:42 34.210405 -119.077891 180 79ft 0kts
24-Jan-18 09:43 34.210404 -119.077891 180 79ft 0kts
24-Jan-18 09:44 34.210403 -119.077891 180 79ft 0kts
24-Jan-18 09:45 34.210402 -119.077891 180 79ft 0kts
24-Jan-18 09:46 34.210402 -119.077891 180 79ft 0kts
24-Jan-18 09:47 34.210401 -119.077891 180 79ft 0kts
24-Jan-18 09:48 34.210400 -119.077891 180 79ft 0kts
24-Jan-18 09:49 34.210399 -119.077891 180 79ft 0kts
24-Jan-18 09:50 34.210399 -119.077891 180 79ft 0kts
24-Jan-18 09:51 34.210398 -119.077891 180 79ft 0kts
24-Jan-18 09:52 34.210397 -119.077891 180 79ft 0kts
24-Jan-18 09:53 34.210396 -119.077891 180 79ft 0kts
24-Jan-18 09:54 34.210396 -119.077891 180 79ft 0kts
24-Jan-18 09:55 34.210395 -119.077891 180 79ft 0kts
24-Jan-18 09:56 34.210394 -119.077891 180 79ft 0kts
24-Jan-18 09:57 34.210393 -119.077891 180 79ft 0kts
24-Jan-18 09:58 34.210393 -119.077891 180 79ft 0kts
24-Jan-18 09:59 34.210392 -119.077891 180 79ft 0kts
24-Jan-18 10:00 34.210391 -119.077891 180 79ft 0kts
24-Jan-18 10:01 34.210390 -119.077891 180 79ft 0kts
24-Jan-18 10:02 34.210390 -119.077891 180 79ft 0kts
24-Jan-18 10:03 34.210389 -119.077891 180 79ft 0kts
24-Jan-18 10:04 34.210388 -119.077891 180 79ft 0kts
24-Jan-18 10:05 34.210387 -119.077891 180 79ft 0kts
24-Jan-18 10:06 34.210387 -119.077891 180 79ft 0kts
24-Jan-18 10:07 34.210386 -119.077891 180 79ft 0kts
24-Jan-18 10:08 34.210385 -119.077891 180 79ft 0kts
24-Jan-18 10:09 34.210385 -119.077891 180 79ft 0kts
24-Jan-18 10:10 34.210385 -119.077891 180 79ft 0kts
24-Jan-18 10:11 34.210385 -119.077891 180 79ft 0kts
24-Jan-18 10:12 34.210384 -119.077891 180 79ft 0kts
24-Jan-18 10:13 34.210382 -119.077891 180 79ft 0kts
24-Jan-18 10:14 34.210381 -119.077891 180 79ft 0kts
24-Jan-18 10:15 34.210379 -119.077891 180 79ft 0kts
24-Jan-18 10:16 34.210378 -119.077892 180 79ft 0kts
24-Jan-18 10:17 34.210376 -119.077892 180 79ft 0kts
24-Jan-18 10:18 34.210375 -119.077892 180 79ft 0kts
24-Jan-18 10:19 34.210373 -119.077892 180 79ft 0kts
24-Jan-18 10:20 34.210373 -119.077892 180 79ft 0kts
24-Jan-18 10:21 34.210371 -119.077892 180 79ft 0kts
24-Jan-18 10:22 34.210369 -119.077892 180 79ft 0kts
24-Jan-18 10:23 34.210368 -119.077892 180 79ft 0kts
24-Jan-18 10:24 34.210368 -119.077892 180 79ft 0kts
24-Jan-18 10:25 34.210368 -119.077892 180 79ft 0kts
24-Jan-18 10:26 34.210368 -119.077892 180 79ft 0kts
24-Jan-18 10:27 34.210368 -119.077892 180 79ft 0kts
24-Jan-18 10:28 34.210368 -119.077892 180 79ft 0kts
24-Jan-18 10:29 34.210368 -119.077892 180 79ft 0kts
24-Jan-18 10:30 34.210368 -119.077892 180 79ft 0kts
24-Jan-18 10:31 34.210367 -119.077892 180 79ft 0kts
24-Jan-18 10:32 34.210365 -119.077892 180 79ft 0kts
24-Jan-18 10:33 34.210364 -119.077892 180 79ft 0kts
24-Jan-18 10:34 34.210363 -119.077892 180 79ft 0kts
24-Jan-18 10:35 34.210362 -119.077892 180 79ft 0kts
24-Jan-18 10:36 34.210361 -119.077892 180 79ft 0kts
24-Jan-18 10:37 34.210360 -119.077892 180 79ft 0kts
24-Jan-18 10:38 34.210921 -119.077880 180 79ft 2kts
24-Jan-18 10:39 34.211145 -119.078056 276 79ft 2kts
24-Jan-18 10:40 34.211178 -119.080673 270 79ft 9kts
24-Jan-18 10:41 34.211182 -119.081765 268 79ft 2kts
24-Jan-18 10:42 34.211242 -119.084299 272 79ft 8kts
24-Jan-18 10:43 34.212796 -119.084598 359 79ft 8kts
24-Jan-18 10:44 34.212983 -119.084599 359 79ft 0kts
24-Jan-18 10:45 34.212984 -119.084599 359 79ft 0kts
24-Jan-18 10:46 34.212986 -119.084599 359 79ft 0kts
24-Jan-18 10:47 34.212987 -119.084599 359 79ft 0kts
24-Jan-18 10:48 34.212989 -119.084599 359 79ft 0kts
24-Jan-18 10:49 34.212990 -119.084599 359 79ft 0kts
24-Jan-18 10:50 34.212992 -119.084599 359 79ft 0kts
24-Jan-18 10:51 34.212994 -119.084599 359 79ft 0kts
24-Jan-18 10:52 34.213124 -119.084599 359 79ft 3kts
24-Jan-18 10:53 34.213803 -119.095964 268 79ft 100kts
24-Jan-18 10:54 34.223232 -119.135612 292 993ft 141kts
24-Jan-18 10:55 34.237905 -119.191562 291 2596ft 149kts
24-Jan-18 10:56 34.249226 -119.229366 291 3818ft 147kts
24-Jan-18 10:57 34.264761 -119.274641 292 5263ft 144kts
24-Jan-18 10:58 34.281716 -119.318643 307 6760ft 151kts
24-Jan-18 10:59 34.323587 -119.295288 46 7969ft 224kts
24-Jan-18 11:00 34.371932 -119.236692 47 9083ft 231kts
24-Jan-18 11:01 34.411846 -119.189868 44 12072ft 170kts
24-Jan-18 11:02 34.449983 -119.145937 42 13779ft 204kts
24-Jan-18 11:03 34.493971 -119.099834 41 15766ft 212kts
24-Jan-18 11:04 34.539177 -119.053363 39 17805ft 213kts
24-Jan-18 11:05 34.584540 -119.007403 39 19843ft 212kts
24-Jan-18 11:06 34.629822 -118.960617 39 21864ft 214kts
24-Jan-18 11:07 34.677172 -118.917427 24 23833ft 212kts
24-Jan-18 11:08 34.729988 -118.884732 22 25846ft 215kts
24-Jan-18 11:09 34.782829 -118.848866 34 27786ft 221kts
24-Jan-18 11:10 34.835706 -118.845251 320 29240ft 185kts
24-Jan-18 11:11 34.879867 -118.879524 328 30300ft 204kts
24-Jan-18 11:12 34.940082 -118.904444 338 30430ft 247kts
24-Jan-18 11:13 35.010219 -118.927560 339 30381ft 271kts
24-Jan-18 11:14 35.085147 -118.952019 339 30279ft 282kts
24-Jan-18 11:15 35.160983 -118.977522 339 30285ft 283kts
24-Jan-18 11:16 35.236689 -119.003767 338 30117ft 270kts
24-Jan-18 11:17 35.301704 -119.028261 335 28115ft 219kts
24-Jan-18 11:18 35.356653 -119.049874 336 26116ft 200kts
24-Jan-18 11:19 35.409166 -119.069138 336 24387ft 187kts
24-Jan-18 11:20 35.468183 -119.090144 339 24236ft 251kts
24-Jan-18 11:21 35.538997 -119.119232 337 24233ft 283kts
24-Jan-18 11:22 35.614965 -119.153516 336 24231ft 294kts
24-Jan-18 11:23 35.691792 -119.190200 335 24231ft 297kts
24-Jan-18 11:24 35.766092 -119.227568 331 25501ft 256kts
24-Jan-18 11:25 35.819780 -119.263616 325 28442ft 187kts
24-Jan-18 11:26 35.872992 -119.291407 330 29427ft 209kts
24-Jan-18 11:27 35.927487 -119.318871 330 30234ft 228kts
24-Jan-18 11:28 35.989521 -119.352186 322 30231ft 254kts
24-Jan-18 11:29 36.056395 -119.389580 329 30231ft 270kts
24-Jan-18 11:30 36.126155 -119.424363 328 30247ft 274kts
24-Jan-18 11:31 36.197278 -119.460526 328 30229ft 276kts
24-Jan-18 11:32 36.268347 -119.496933 328 30229ft 276kts
24-Jan-18 11:33 36.339263 -119.533409 328 30229ft 276kts
24-Jan-18 11:34 36.410307 -119.570050 328 30220ft 276kts
24-Jan-18 11:35 36.481118 -119.606644 328 30215ft 275kts
24-Jan-18 11:36 36.551889 -119.643286 328 30200ft 276kts
24-Jan-18 11:37 36.623086 -119.680212 328 30146ft 277kts
24-Jan-18 11:38 36.694032 -119.717033 328 30152ft 276kts
24-Jan-18 11:39 36.765035 -119.753922 328 30145ft 276kts
24-Jan-18 11:40 36.835953 -119.790707 328 30108ft 276kts
24-Jan-18 11:41 36.912870 -119.810115 348 30122ft 293kts
24-Jan-18 11:42 36.995110 -119.809180 351 30137ft 296kts
24-Jan-18 11:43 37.077497 -119.805400 352 30132ft 297kts
24-Jan-18 11:44 37.160047 -119.800929 352 30138ft 297kts
24-Jan-18 11:45 37.242915 -119.796229 352 30138ft 297kts
24-Jan-18 11:46 37.325580 -119.791467 352 30145ft 298kts
24-Jan-18 11:47 37.408667 -119.786649 352 30152ft 298kts
24-Jan-18 11:48 37.491494 -119.781822 352 30158ft 298kts
24-Jan-18 11:49 37.574737 -119.776963 352 30167ft 298kts
24-Jan-18 11:50 37.657676 -119.772104 352 30171ft 299kts
24-Jan-18 11:51 37.741245 -119.767217 352 30181ft 300kts
24-Jan-18 11:52 37.824519 -119.762310 352 30190ft 300kts
24-Jan-18 11:53 37.908344 -119.757407 352 30189ft 303kts
24-Jan-18 11:54 37.992860 -119.752428 352 30175ft 305kts
24-Jan-18 11:55 38.077930 -119.747432 352 30163ft 307kts
24-Jan-18 11:56 38.163210 -119.742363 351 30144ft 308kts
24-Jan-18 11:57 38.249832 -119.737275 351 30112ft 312kts
24-Jan-18 11:58 38.336494 -119.732097 351 30109ft 313kts
24-Jan-18 11:59 38.423967 -119.726889 352 30098ft 314kts
24-Jan-18 12:00 38.511427 -119.721636 352 30098ft 315kts
24-Jan-18 12:01 38.599029 -119.716356 352 30098ft 315kts
24-Jan-18 12:02 38.687016 -119.711035 352 30084ft 316kts
24-Jan-18 12:03 38.774822 -119.705704 352 30081ft 316kts
24-Jan-18 12:04 38.862910 -119.700330 352 30081ft 316kts
24-Jan-18 12:05 38.950721 -119.694950 352 30081ft 316kts
24-Jan-18 12:06 39.038480 -119.689545 352 30081ft 316kts
24-Jan-18 12:07 39.126658 -119.684082 352 30080ft 316kts
24-Jan-18 12:08 39.214567 -119.678585 352 30077ft 317kts
24-Jan-18 12:09 39.302586 -119.673004 352 30071ft 317kts
24-Jan-18 12:10 39.390949 -119.667252 351 30060ft 317kts
24-Jan-18 12:11 39.479266 -119.661135 352 30025ft 318kts
24-Jan-18 12:12 39.565065 -119.670165 338 30019ft 304kts
24-Jan-18 12:13 39.647564 -119.691006 336 30009ft 301kts
24-Jan-18 12:14 39.729549 -119.713219 335 30006ft 301kts
24-Jan-18 12:15 39.811760 -119.735523 335 30000ft 301kts
24-Jan-18 12:16 39.893535 -119.758072 334 29998ft 300kts
24-Jan-18 12:17 39.974991 -119.781684 334 29995ft 300kts
24-Jan-18 12:18 40.056916 -119.804896 335 29993ft 300kts
24-Jan-18 12:19 40.138820 -119.827906 334 29987ft 302kts
24-Jan-18 12:20 40.221139 -119.850989 335 29989ft 302kts
24-Jan-18 12:21 40.303295 -119.874060 334 29982ft 303kts
24-Jan-18 12:22 40.385704 -119.897224 335 29985ft 303kts
24-Jan-18 12:23 40.468405 -119.920489 334 29980ft 304kts
24-Jan-18 12:24 40.551110 -119.943787 335 29981ft 304kts
24-Jan-18 12:25 40.634168 -119.967135 334 29976ft 305kts
24-Jan-18 12:26 40.717595 -119.990508 335 29974ft 307kts
24-Jan-18 12:27 40.801380 -120.013547 333 29965ft 308kts
24-Jan-18 12:28 40.885285 -120.038820 333 29963ft 309kts
24-Jan-18 12:29 40.969145 -120.063682 333 29964ft 308kts
24-Jan-18 12:30 41.052280 -120.087731 333 29962ft 303kts
24-Jan-18 12:31 41.134250 -120.111408 333 29963ft 301kts
24-Jan-18 12:32 41.215884 -120.135035 333 29963ft 300kts
24-Jan-18 12:33 41.297665 -120.158758 333 29963ft 300kts
24-Jan-18 12:34 41.379137 -120.182445 333 29963ft 300kts
24-Jan-18 12:35 41.460605 -120.206185 333 29963ft 300kts
24-Jan-18 12:36 41.542449 -120.230121 333 29963ft 301kts
24-Jan-18 12:37 41.624522 -120.254200 333 29963ft 303kts
24-Jan-18 12:38 41.706963 -120.278397 333 29976ft 302kts
24-Jan-18 12:39 41.788973 -120.302495 333 29981ft 302kts
24-Jan-18 12:40 41.870644 -120.326550 336 30050ft 299kts
24-Jan-18 12:41 41.951832 -120.350421 336 30065ft 293kts
24-Jan-18 12:42 42.029609 -120.373057 336 30060ft 280kts
24-Jan-18 12:43 42.107129 -120.396126 336 30078ft 290kts
24-Jan-18 12:44 42.186665 -120.419903 336 30077ft 294kts
24-Jan-18 12:45 42.265961 -120.446846 334 30079ft 294kts
24-Jan-18 12:46 42.346747 -120.470460 338 30080ft 298kts
24-Jan-18 12:47 42.428175 -120.491382 338 30080ft 298kts
24-Jan-18 12:48 42.507512 -120.518850 331 30079ft 292kts
24-Jan-18 12:49 42.584786 -120.553013 331 30080ft 291kts
24-Jan-18 12:50 42.661784 -120.587202 331 30080ft 291kts
24-Jan-18 12:51 42.739074 -120.621493 331 30080ft 291kts
24-Jan-18 12:52 42.816124 -120.655725 331 30080ft 291kts
24-Jan-18 12:53 42.893147 -120.690018 331 30080ft 291kts
24-Jan-18 12:54 42.970432 -120.724512 331 30080ft 291kts
24-Jan-18 12:55 43.047472 -120.758983 331 30080ft 291kts
24-Jan-18 12:56 43.124738 -120.793643 331 30080ft 291kts
24-Jan-18 12:57 43.201732 -120.828271 331 30080ft 291kts
24-Jan-18 12:58 43.265890 -120.857191 331 30081ft 291kts
24-Jan-18 12:59 43.343167 -120.892107 331 30081ft 291kts
24-Jan-18 13:00 43.432993 -120.932801 331 30081ft 291kts
24-Jan-18 13:01 43.497151 -120.961937 331 30081ft 291kts
24-Jan-18 13:02 43.587209 -121.002932 331 30081ft 291kts
24-Jan-18 13:03 43.651379 -121.032208 331 30081ft 291kts
24-Jan-18 13:04 43.728573 -121.067479 331 30081ft 289kts
24-Jan-18 13:05 43.806123 -121.103168 331 29069ft 301kts
24-Jan-18 13:06 43.886299 -121.140182 331 27573ft 306kts
24-Jan-18 13:07 43.968029 -121.177831 332 26071ft 311kts
24-Jan-18 13:08 44.050239 -121.215550 332 24574ft 311kts
24-Jan-18 13:09 44.132343 -121.252872 332 23071ft 307kts
24-Jan-18 13:10 44.211318 -121.287778 333 21571ft 292kts
24-Jan-18 13:11 44.273458 -121.347334 307 20074ft 264kts
24-Jan-18 13:12 44.324899 -121.419219 304 18571ft 258kts
24-Jan-18 13:13 44.374154 -121.491209 303 17073ft 254kts
24-Jan-18 13:14 44.422242 -121.562297 303 15575ft 249kts
24-Jan-18 13:15 44.469532 -121.632513 302 14071ft 245kts
24-Jan-18 13:16 44.515768 -121.701346 302 13083ft 242kts
24-Jan-18 13:17 44.562164 -121.770836 302 13000ft 244kts
24-Jan-18 13:18 44.608695 -121.840496 302 12999ft 244kts
24-Jan-18 13:19 44.655059 -121.909867 302 13000ft 244kts
24-Jan-18 13:20 44.701758 -121.979337 303 12999ft 244kts
24-Jan-18 13:21 44.747758 -122.049066 301 13000ft 242kts
24-Jan-18 13:22 44.792914 -122.119687 301 12712ft 241kts
24-Jan-18 13:23 44.838096 -122.188762 302 11208ft 238kts
24-Jan-18 13:24 44.882585 -122.256480 302 9710ft 233kts
24-Jan-18 13:25 44.926562 -122.323534 302 8229ft 232kts
24-Jan-18 13:26 44.970386 -122.390464 302 8005ft 232kts
24-Jan-18 13:27 45.013967 -122.457000 302 7999ft 230kts
24-Jan-18 13:28 45.057482 -122.523299 303 7999ft 229kts
24-Jan-18 13:29 45.102502 -122.583316 312 6704ft 217kts
24-Jan-18 13:30 45.150518 -122.634903 312 5223ft 215kts
24-Jan-18 13:31 45.197176 -122.685832 312 5005ft 221kts
24-Jan-18 13:32 45.253261 -122.721922 5 5007ft 252kts
24-Jan-18 13:33 45.313946 -122.671391 39 4842ft 267kts
24-Jan-18 13:34 45.361342 -122.602926 43 3335ft 222kts
24-Jan-18 13:35 45.408309 -122.572033 13 2999ft 172kts
24-Jan-18 13:36 45.451178 -122.570260 307 3007ft 153kts
24-Jan-18 13:37 45.478067 -122.619111 302 3000ft 158kts
24-Jan-18 13:38 45.461783 -122.662160 215 3004ft 150kts
24-Jan-18 13:39 45.427430 -122.699311 225 3000ft 157kts
24-Jan-18 13:40 45.396995 -122.744611 209 2994ft 159kts
24-Jan-18 13:41 45.352836 -122.746132 203 2561ft 164kts
24-Jan-18 13:42 45.311560 -122.757686 193 2204ft 154kts
24-Jan-18 13:43 45.278253 -122.764203 193 824ft 93kts
24-Jan-18 13:44 45.256395 -122.768411 188 291ft 74kts
24-Jan-18 13:45 45.246044 -122.770219 187 204ft 11kts
24-Jan-18 13:46 45.243910 -122.769251 187 204ft 13kts
24-Jan-18 13:47 45.242582 -122.768733 4 204ft 0kts
24-Jan-18 13:48 45.253713 -122.768880 183 221ft 65kts

Navigation Log

Ident Type
Flight plan parsing failed, navigation log unavailable